Japan Airlines Virtual Airport Information Service

Barcelona El Prat Airport

ICAO: LEBL Country: Spain
Latitude: 41.2971 Longitude: 2.07846
Latest Arrival : AMX37 (3) (MMMX-LEBL) Latest Departure : AMX38 (LEBL-MMMX)


WX CaptureLIVE
Data provided by noaa.gov | Fetched at 17:27:50

METAR : LEBL 291700Z 23010KT 9999 FEW030 21/14 Q1017 NOSIG

TAF : LEBL 291210Z 2912/3012 20008KT 9999 FEW030 TX24/2912Z TN15/3006Z BECMG 2920/2922 34005KT BECMG 3010/3012 22010KT


Runway Data for LEBL
Data provided by openaviationdata.com

Runway ID Mag Var Hdg Length Elevation Surface ILS Freq ILS Id ILS Slope
2 -1 19° 8333 ft 12 ft Asphalt 108.75 BLT 3
07L -1 66° 10997 ft 12 ft Asphalt 110.3 QAA 3
07R -1 66° 8727 ft 12 ft Asphalt 110.75 BLE 3
20 -1 199° 8333 ft 12 ft Asphalt -- -- --
25L -1 246° 8727 ft 12 ft Asphalt 111.5 BLW 3
25R -1 246° 10997 ft 12 ft Asphalt 109.5 BCA 3

Barcelona El Prat Airport, Spain
Use only for reference purposes



Not for navigational purposes.